Time;durP1;ratioP1;P1;durP2;ratioP2;P2;SDS_P1;SDS_P2;PMS_P1;PMS_P2;Temp;Humidity;BMP_temperature;BMP_pressure;BME280_temperature;BME280_humidity;BME280_pressure;Samples;Min_cycle;Max_cycle;Signal;HPM_P1;HPM_P2
2022/05/16 00:02:17;;;;;;;4.65;2.00;;;19.10;73.90;;;;;;10535728;28;20032;-66
2022/05/16 00:07:20;;;;;;;2.92;1.80;;;19.10;73.90;;;;;;10535844;28;20028;-62
2022/05/16 00:12:20;;;;;;;4.25;2.20;;;19.10;74.00;;;;;;10535844;28;20043;-65
2022/05/16 00:17:21;;;;;;;4.53;2.05;;;19.00;74.00;;;;;;10535793;28;20035;-65
2022/05/16 00:22:24;;;;;;;4.13;1.98;;;19.00;74.10;;;;;;10535563;28;20047;-63
2022/05/16 00:27:24;;;;;;;4.22;2.20;;;18.90;74.10;;;;;;10535750;28;20063;-65
2022/05/16 00:32:25;;;;;;;5.10;2.53;;;18.90;74.70;;;;;;10535224;28;20066;-64
2022/05/16 00:37:26;;;;;;;5.00;2.28;;;18.90;74.10;;;;;;10535689;28;20036;-62
2022/05/16 00:42:26;;;;;;;5.60;2.20;;;18.90;74.20;;;;;;10535360;28;20127;-66
2022/05/16 00:47:27;;;;;;;6.95;2.60;;;18.80;74.10;;;;;;10535103;28;20044;-63
2022/05/16 00:52:32;;;;;;;4.70;2.20;;;18.80;74.20;;;;;;10535335;28;20080;-64
2022/05/16 00:57:57;;;;;;;4.22;2.10;;;18.70;74.10;;;;;;10535244;28;20070;-65
2022/05/16 01:08:31;;;;;;;7.43;2.03;;;18.70;74.20;;;;;;10534830;28;20067;-64
2022/05/16 01:13:32;;;;;;;4.15;2.08;;;18.60;74.20;;;;;;10534988;28;20464;-66
2022/05/16 01:18:33;;;;;;;7.45;2.13;;;18.60;74.20;;;;;;10542534;28;20090;-66
2022/05/16 01:23:41;;;;;;;4.05;1.95;;;18.60;74.20;;;;;;10542365;28;20158;-66
2022/05/16 01:28:42;;;;;;;6.07;2.60;;;18.60;74.20;;;;;;10541848;28;20452;-65
2022/05/16 01:33:42;;;;;;;4.72;2.10;;;18.50;74.20;;;;;;10542004;28;20119;-61
2022/05/16 01:38:43;;;;;;;5.55;2.10;;;18.50;74.20;;;;;;10541769;28;20055;-64
2022/05/16 01:43:48;;;;;;;6.60;2.72;;;18.50;74.20;;;;;;10541372;28;20036;-65
2022/05/16 01:48:49;;;;;;;8.45;2.28;;;18.40;74.20;;;;;;10541168;28;20044;-65
2022/05/16 01:53:50;;;;;;;3.83;1.85;;;18.40;74.20;;;;;;10541075;28;20036;-65
2022/05/16 01:58:51;;;;;;;5.50;2.45;;;18.40;74.20;;;;;;10540789;28;20059;-65
2022/05/16 02:03:52;;;;;;;5.88;2.10;;;18.30;74.20;;;;;;10541087;28;20036;-66
2022/05/16 02:08:54;;;;;;;4.38;2.13;;;18.30;74.20;;;;;;10540714;28;20062;-65
2022/05/16 02:13:55;;;;;;;6.22;2.40;;;18.30;74.20;;;;;;10540178;28;20040;-66
2022/05/16 02:18:56;;;;;;;7.05;2.15;;;18.30;74.20;;;;;;10540247;28;20032;-65
2022/05/16 02:29:18;;;;;;;6.70;2.15;;;18.20;74.20;;;;;;10539452;28;20056;-65
2022/05/16 02:34:19;;;;;;;6.35;2.03;;;18.20;74.20;;;;;;10539482;28;20385;-64
2022/05/16 02:39:20;;;;;;;6.05;2.60;;;18.20;74.20;;;;;;10539345;28;20032;-64
2022/05/16 02:44:21;;;;;;;7.57;2.47;;;18.10;74.20;;;;;;10539073;28;20380;-65
2022/05/16 02:49:22;;;;;;;5.63;2.35;;;18.10;74.20;;;;;;10520791;28;20075;-64
2022/05/16 02:54:22;;;;;;;4.55;2.05;;;18.10;74.80;;;;;;10538541;28;20054;-65
2022/05/16 02:59:25;;;;;;;4.72;1.85;;;18.00;74.20;;;;;;10520471;28;20044;-66
2022/05/16 03:04:26;;;;;;;4.88;2.05;;;18.00;74.20;;;;;;10538160;28;20040;-65
2022/05/16 03:09:28;;;;;;;5.03;2.10;;;18.00;74.20;;;;;;10537752;28;20052;-64
2022/05/16 03:14:29;;;;;;;5.03;2.03;;;18.00;74.20;;;;;;10537903;28;20078;-63
2022/05/16 03:19:30;;;;;;;4.53;2.25;;;17.90;74.10;;;;;;10537711;28;20500;-65
2022/05/16 03:24:31;;;;;;;3.78;2.15;;;17.90;74.20;;;;;;10537323;28;20089;-64
2022/05/16 03:29:32;;;;;;;4.45;2.33;;;17.90;74.20;;;;;;10537264;28;20130;-65
2022/05/16 03:34:32;;;;;;;5.35;1.90;;;17.90;74.10;;;;;;10537038;28;20111;-65
2022/05/16 03:44:52;;;;;;;4.20;2.15;;;17.80;74.10;;;;;;10536746;28;20115;-66
2022/05/16 03:49:53;;;;;;;3.20;1.80;;;17.80;74.10;;;;;;10536596;28;20622;-63
2022/05/16 03:54:53;;;;;;;6.43;2.40;;;17.80;74.10;;;;;;10536252;28;20030;-65
2022/05/16 03:59:54;;;;;;;4.78;2.35;;;17.70;74.00;;;;;;10536702;28;20049;-65
2022/05/16 04:04:55;;;;;;;3.00;2.00;;;17.70;74.00;;;;;;10536423;28;20532;-66
2022/05/16 04:09:56;;;;;;;6.32;2.22;;;17.70;74.00;;;;;;10536167;28;20044;-64
2022/05/16 04:14:56;;;;;;;4.68;2.13;;;17.70;74.00;;;;;;10535903;28;20059;-66
2022/05/16 04:19:57;;;;;;;5.05;1.98;;;17.70;74.00;;;;;;10535765;28;20036;-65
2022/05/16 04:24:58;;;;;;;8.80;2.20;;;17.60;73.90;;;;;;10535941;28;20040;-65
2022/05/16 04:29:59;;;;;;;4.18;2.00;;;17.60;73.90;;;;;;10535599;28;20051;-64
2022/05/16 04:35:00;;;;;;;7.85;2.15;;;17.60;73.90;;;;;;10535714;28;20043;-65
2022/05/16 04:40:08;;;;;;;5.72;1.83;;;17.60;73.90;;;;;;10535593;28;20152;-63
2022/05/16 04:45:24;;;;;;;3.58;2.15;;;17.60;73.90;;;;;;10535392;28;20043;-65
2022/05/16 04:50:34;;;;;;;4.88;2.17;;;17.60;73.90;;;;;;10540314;28;20051;-65
2022/05/16 04:55:35;;;;;;;4.10;2.15;;;17.50;73.90;;;;;;10543314;28;20093;-63
2022/05/16 05:00:35;;;;;;;7.35;2.20;;;17.50;73.80;;;;;;10543346;28;20115;-61
2022/05/16 05:05:36;;;;;;;5.68;2.30;;;17.50;73.80;;;;;;10543035;28;20388;-65
2022/05/16 05:16:17;;;;;;;3.53;2.03;;;17.50;73.80;;;;;;10541356;28;20036;-65
2022/05/16 05:21:18;;;;;;;4.97;1.90;;;17.50;73.70;;;;;;10542536;28;20046;-65
2022/05/16 05:26:20;;;;;;;3.40;1.98;;;17.50;73.70;;;;;;10542181;28;20031;-65
2022/05/16 05:31:25;;;;;;;3.72;1.73;;;17.60;73.80;;;;;;10542067;28;20044;-65
2022/05/16 05:36:26;;;;;;;3.50;1.98;;;17.50;73.70;;;;;;10541736;28;20040;-63
2022/05/16 05:41:27;;;;;;;3.28;1.85;;;17.50;73.70;;;;;;10542233;28;20036;-65
2022/05/16 05:46:36;;;;;;;4.97;2.08;;;17.50;73.70;;;;;;10541623;28;20452;-65
2022/05/16 05:51:38;;;;;;;3.45;1.70;;;17.50;73.70;;;;;;10541037;28;20373;-65
2022/05/16 05:56:39;;;;;;;3.97;2.00;;;17.50;73.70;;;;;;10540911;28;20094;-63
2022/05/16 06:01:40;;;;;;;4.47;1.83;;;17.50;73.60;;;;;;10539994;28;20051;-63
2022/05/16 06:06:42;;;;;;;2.78;1.65;;;17.50;73.60;;;;;;10540680;28;20055;-65
2022/05/16 06:11:43;;;;;;;4.47;1.70;;;17.60;73.70;;;;;;10540658;28;20615;-66
2022/05/16 06:16:43;;;;;;;3.75;2.00;;;17.60;73.70;;;;;;10540334;28;20181;-63
2022/05/16 06:21:44;;;;;;;4.90;1.75;;;17.60;74.30;;;;;;10540147;28;20044;-65
2022/05/16 06:26:45;;;;;;;3.50;1.77;;;17.60;74.20;;;;;;10539734;28;20488;-65
2022/05/16 06:31:46;;;;;;;6.13;2.00;;;17.60;73.60;;;;;;10539504;28;20127;-66
2022/05/16 06:36:47;;;;;;;3.60;2.00;;;17.60;73.60;;;;;;10539318;28;20062;-65
2022/05/16 06:41:49;;;;;;;5.32;1.88;;;17.60;73.60;;;;;;10539516;28;20500;-64
2022/05/16 06:46:49;;;;;;;3.63;2.15;;;17.70;73.80;;;;;;10539016;28;20044;-65
2022/05/16 06:51:50;;;;;;;4.28;1.80;;;17.70;73.80;;;;;;10538679;28;20052;-64
2022/05/16 06:56:51;;;;;;;2.85;1.98;;;17.70;73.70;;;;;;10538582;28;20062;-65
2022/05/16 07:01:51;;;;;;;3.25;1.75;;;17.70;73.70;;;;;;10538376;28;20044;-62
2022/05/16 07:06:52;;;;;;;4.10;2.20;;;17.80;73.70;;;;;;10538779;28;20131;-65
2022/05/16 07:11:54;;;;;;;2.83;2.13;;;17.80;73.60;;;;;;10537976;28;20516;-64
2022/05/16 07:16:54;;;;;;;2.20;1.77;;;17.90;73.60;;;;;;10537888;28;20496;-64
2022/05/16 07:21:55;;;;;;;5.43;1.65;;;17.90;73.60;;;;;;10537708;28;20035;-65
2022/05/16 07:32:15;;;;;;;2.67;1.80;;;18.00;73.40;;;;;;10537091;28;20039;-65
2022/05/16 07:37:16;;;;;;;5.38;2.38;;;18.00;73.30;;;;;;10537061;28;20415;-63
2022/05/16 07:42:17;;;;;;;4.43;1.90;;;18.10;73.30;;;;;;10536962;28;20040;-65
2022/05/16 07:47:18;;;;;;;4.10;2.00;;;18.10;73.30;;;;;;10536719;28;20040;-63
2022/05/16 07:52:18;;;;;;;5.88;2.20;;;18.20;73.30;;;;;;10536316;28;20472;-65
2022/05/16 07:57:19;;;;;;;3.38;1.80;;;18.20;73.30;;;;;;10536210;28;20127;-64
2022/05/16 08:02:20;;;;;;;2.92;2.00;;;18.30;73.30;;;;;;10536077;28;20583;-64
2022/05/16 08:07:21;;;;;;;3.35;2.45;;;18.40;73.20;;;;;;10536295;28;20036;-64
2022/05/16 08:12:27;;;;;;;4.03;2.05;;;18.40;73.10;;;;;;10536245;28;20040;-66
2022/05/16 08:17:31;;;;;;;6.15;2.28;;;18.50;73.10;;;;;;10535785;28;20500;-65
2022/05/16 08:22:33;;;;;;;6.13;2.22;;;18.60;73.00;;;;;;10535453;28;20127;-65
2022/05/16 08:27:34;;;;;;;4.90;2.22;;;18.70;73.00;;;;;;10535592;28;20039;-64
2022/05/16 08:32:35;;;;;;;3.88;2.10;;;18.80;72.90;;;;;;10535341;28;20048;-65
2022/05/16 08:43:09;;;;;;;7.80;2.53;;;18.90;72.90;;;;;;10535269;28;20193;-66
2022/05/16 08:48:22;;;;;;;4.13;2.20;;;19.00;72.90;;;;;;10535130;28;20020;-64
2022/05/16 08:53:34;;;;;;;4.07;2.40;;;19.10;72.80;;;;;;10535159;28;20043;-65
2022/05/16 08:58:57;;;;;;;6.40;2.40;;;19.10;72.70;;;;;;10534859;28;20441;-65
2022/05/16 09:04:14;;;;;;;6.95;2.60;;;19.20;72.80;;;;;;10535232;28;20107;-65
2022/05/16 09:09:18;;;;;;;3.70;2.22;;;19.30;72.80;;;;;;10534941;28;20155;-64
2022/05/16 09:14:25;;;;;;;5.22;2.05;;;19.30;72.70;;;;;;10534881;28;20496;-65
2022/05/16 09:19:47;;;;;;;5.70;2.28;;;19.40;72.60;;;;;;10534994;28;20064;-66
2022/05/16 09:24:53;;;;;;;4.93;2.67;;;19.50;72.60;;;;;;10534539;28;20032;-62
2022/05/16 09:29:53;;;;;;;5.97;2.70;;;19.50;72.40;;;;;;10534182;28;20048;-65
2022/05/16 09:34:54;;;;;;;4.45;2.85;;;19.60;72.40;;;;;;10534852;28;20105;-66
2022/05/16 09:39:55;;;;;;;5.80;2.60;;;19.60;72.40;;;;;;10541710;28;20523;-65
2022/05/16 09:45:04;;;;;;;5.38;2.67;;;19.70;72.40;;;;;;10541239;28;20032;-63
2022/05/16 09:50:24;;;;;;;5.35;2.70;;;19.70;72.50;;;;;;10541299;28;20572;-66
2022/05/16 09:55:34;;;;;;;5.93;2.95;;;19.70;72.70;;;;;;10538479;28;20390;-66
2022/05/16 10:00:40;;;;;;;4.78;2.70;;;19.70;72.90;;;;;;10540809;28;20036;-64
2022/05/16 10:05:47;;;;;;;5.82;2.78;;;19.70;73.00;;;;;;10540647;28;20032;-62
2022/05/16 10:10:48;;;;;;;6.97;3.15;;;19.60;73.30;;;;;;10540644;28;20141;-65
2022/05/16 10:15:53;;;;;;;5.68;2.97;;;19.60;73.40;;;;;;10540307;28;20040;-63
2022/05/16 10:20:59;;;;;;;4.25;2.60;;;19.70;73.60;;;;;;10540668;28;20388;-62
2022/05/16 10:26:04;;;;;;;6.18;2.83;;;19.80;73.70;;;;;;10539881;28;20488;-64
2022/05/16 10:36:52;;;;;;;4.53;2.80;;;19.80;73.90;;;;;;10539461;28;20457;-64
2022/05/16 10:42:17;;;;;;;5.75;2.95;;;19.80;74.00;;;;;;10539570;28;21094;-66
2022/05/16 10:47:57;;;;;;;5.55;3.70;;;19.90;74.40;;;;;;10538554;28;20047;-64
2022/05/16 10:53:30;;;;;;;5.88;2.90;;;19.90;74.40;;;;;;10527217;28;20173;-67
2022/05/16 10:58:51;;;;;;;5.03;2.88;;;20.00;74.40;;;;;;10538359;28;20520;-63
2022/05/16 11:04:29;;;;;;;5.55;2.78;;;20.00;74.00;;;;;;10534087;28;20096;-65
2022/05/16 11:09:41;;;;;;;5.70;2.97;;;20.10;74.20;;;;;;10538182;28;20043;-64
2022/05/16 11:15:21;;;;;;;5.00;2.72;;;20.20;74.10;;;;;;10537827;28;20036;-64
2022/05/16 11:20:46;;;;;;;5.57;3.03;;;20.20;74.40;;;;;;10537560;28;20066;-64
2022/05/16 11:25:52;;;;;;;5.97;2.90;;;20.20;74.30;;;;;;10537761;28;20040;-66
2022/05/16 11:31:00;;;;;;;6.95;3.08;;;20.30;74.10;;;;;;10537291;28;20062;-65
2022/05/16 11:36:20;;;;;;;3.83;2.50;;;20.30;74.20;;;;;;10537398;28;20488;-65
2022/05/16 11:41:43;;;;;;;4.10;2.50;;;20.30;74.20;;;;;;10537086;28;20031;-65
2022/05/16 11:46:52;;;;;;;5.35;2.80;;;20.30;74.50;;;;;;10536799;28;20456;-65
2022/05/16 11:52:08;;;;;;;3.70;2.60;;;20.30;74.50;;;;;;10536490;28;20043;-66
2022/05/16 12:02:30;;;;;;;7.20;2.63;;;20.30;74.40;;;;;;10536042;28;20438;-65
2022/05/16 12:07:35;;;;;;;5.40;2.97;;;20.40;74.50;;;;;;10536044;28;20084;-63
2022/05/16 12:12:42;;;;;;;6.75;3.35;;;20.40;74.50;;;;;;10535765;28;20083;-66
2022/05/16 12:18:04;;;;;;;6.05;2.92;;;20.60;74.60;;;;;;10535966;28;20036;-66
2022/05/16 12:23:07;;;;;;;4.88;2.97;;;20.70;74.80;;;;;;10517561;28;20020;-63
2022/05/16 12:28:13;;;;;;;5.88;3.10;;;20.70;74.40;;;;;;10535489;28;20036;-65
2022/05/16 12:33:26;;;;;;;4.15;2.88;;;20.80;74.70;;;;;;10535525;28;20086;-65
2022/05/16 12:38:29;;;;;;;5.68;2.97;;;20.80;74.70;;;;;;10535354;28;20056;-66
2022/05/16 12:43:48;;;;;;;5.50;2.75;;;20.80;74.60;;;;;;10535396;28;20075;-65
2022/05/16 12:49:04;;;;;;;5.05;3.42;;;20.80;75.00;;;;;;10535139;28;20028;-65
2022/05/16 12:54:19;;;;;;;6.65;3.00;;;20.80;74.90;;;;;;10535350;28;20115;-66
2022/05/16 12:59:53;;;;;;;7.85;3.00;;;20.90;75.10;;;;;;10534907;28;20051;-63
2022/05/16 13:05:06;;;;;;;5.25;3.38;;;21.00;75.10;;;;;;10534795;28;20028;-66
2022/05/16 13:10:12;;;;;;;5.10;4.03;;;21.20;75.00;;;;;;10537928;28;20063;-66
2022/05/16 13:15:26;;;;;;;5.80;3.60;;;21.30;74.50;;;;;;10543210;28;20459;-64
2022/05/16 13:20:33;;;;;;;6.97;4.05;;;21.50;74.40;;;;;;10542567;28;20127;-66
2022/05/16 13:29:21;;;;;;;7.45;3.40;;;21.60;74.30;;;;;;10542313;28;20034;-63
2022/05/16 13:30:55;;;;;;;7.40;4.00;;;21.60;74.20;;;;;;10542038;28;20454;-63
2022/05/16 13:36:12;;;;;;;5.78;3.97;;;21.60;74.30;;;;;;10542009;28;20085;-65
2022/05/16 13:41:13;;;;;;;5.60;4.35;;;21.60;74.40;;;;;;10541915;28;20406;-66
2022/05/16 13:46:13;;;;;;;8.23;4.47;;;21.60;74.60;;;;;;10541570;28;20032;-65
2022/05/16 13:51:21;;;;;;;7.03;4.20;;;21.60;74.80;;;;;;10523212;28;20135;-66
2022/05/16 13:56:46;;;;;;;4.85;3.65;;;21.60;74.90;;;;;;10541074;28;20040;-62
2022/05/16 14:01:58;;;;;;;8.10;3.72;;;21.60;75.10;;;;;;10540944;28;20024;-66
2022/05/16 14:07:10;;;;;;;5.57;3.72;;;21.60;75.10;;;;;;10540808;28;20136;-65
2022/05/16 14:12:17;;;;;;;5.80;3.15;;;21.60;75.20;;;;;;10540763;28;20052;-75
2022/05/16 14:17:40;;;;;;;5.47;3.45;;;21.60;75.40;;;;;;10540885;28;20052;-71
2022/05/16 14:22:48;;;;;;;8.02;3.22;;;21.60;75.90;;;;;;10539877;28;20548;-64
2022/05/16 14:28:15;;;;;;;5.20;3.25;;;21.60;75.60;;;;;;10538921;28;20039;-65
2022/05/16 14:33:17;;;;;;;6.00;4.35;;;21.70;76.10;;;;;;10539812;28;20055;-66
2022/05/16 14:38:17;;;;;;;7.93;4.60;;;21.70;76.00;;;;;;10540102;28;20044;-67
2022/05/16 14:43:37;;;;;;;7.70;4.50;;;21.60;76.40;;;;;;10539516;28;20082;-64
2022/05/16 14:48:38;;;;;;;9.50;5.35;;;21.50;77.20;;;;;;10539186;28;20082;-71
2022/05/16 14:53:39;;;;;;;9.85;4.90;;;21.50;77.30;;;;;;10539122;28;20044;-74
2022/05/16 14:58:39;;;;;;;8.27;4.28;;;21.40;77.40;;;;;;10536634;28;20135;-67
2022/05/16 15:09:02;;;;;;;18.20;9.20;;;21.30;78.30;;;;;;10538446;28;20126;-71
2022/05/16 15:14:02;;;;;;;19.17;10.00;;;21.00;79.70;;;;;;10538144;28;20035;-75
2022/05/16 15:19:03;;;;;;;21.15;9.63;;;20.80;80.50;;;;;;10538035;28;20544;-68
2022/05/16 15:24:07;;;;;;;20.42;10.90;;;20.60;81.60;;;;;;10538057;28;20032;-69
2022/05/16 15:29:07;;;;;;;18.27;9.98;;;20.50;82.30;;;;;;10537834;28;20035;-74
2022/05/16 15:34:08;;;;;;;19.52;9.50;;;20.40;82.70;;;;;;10536529;28;20040;-67
2022/05/16 15:39:19;;;;;;;20.48;10.80;;;20.30;83.20;;;;;;10537134;28;20058;-71
2022/05/16 15:44:22;;;;;;;18.60;10.30;;;20.20;83.90;;;;;;10537099;28;20094;-67
2022/05/16 15:49:23;;;;;;;20.73;9.80;;;20.20;84.10;;;;;;10536800;28;20042;-69
2022/05/16 15:54:23;;;;;;;20.75;10.40;;;20.10;84.60;;;;;;10537066;28;20046;-72
2022/05/16 15:59:24;;;;;;;18.45;9.57;;;20.00;85.00;;;;;;10536415;28;20473;-69
2022/05/16 16:09:44;;;;;;;18.13;8.57;;;19.90;85.80;;;;;;10536490;28;20543;-66
2022/05/16 16:14:47;;;;;;;19.10;8.23;;;19.90;85.90;;;;;;10518549;28;20036;-65
2022/05/16 16:19:47;;;;;;;14.23;7.43;;;20.00;85.80;;;;;;10536243;28;20040;-62
2022/05/16 16:24:50;;;;;;;11.98;6.80;;;20.00;85.40;;;;;;10535969;28;20036;-70
2022/05/16 16:29:51;;;;;;;18.08;6.60;;;20.10;85.10;;;;;;10517839;28;20179;-63
2022/05/16 16:34:51;;;;;;;13.18;5.97;;;20.20;84.70;;;;;;10534854;28;20187;-68
2022/05/16 16:39:52;;;;;;;12.50;6.25;;;20.30;84.60;;;;;;10536032;28;20396;-63
2022/05/16 16:44:53;;;;;;;12.82;6.88;;;20.30;84.30;;;;;;10537975;28;20028;-70
2022/05/16 16:49:56;;;;;;;10.75;5.75;;;20.30;84.70;;;;;;10543872;28;20493;-68
2022/05/16 17:00:21;;;;;;;9.35;5.18;;;20.30;84.50;;;;;;10543806;28;20044;-76
2022/05/16 17:05:29;;;;;;;9.77;5.25;;;20.30;83.80;;;;;;10543830;28;20040;-63
2022/05/16 17:10:41;;;;;;;10.13;4.72;;;20.30;83.70;;;;;;10543758;28;20036;-76
2022/05/16 17:15:42;;;;;;;9.60;4.47;;;20.30;83.70;;;;;;10543114;28;20035;-71
2022/05/16 17:20:43;;;;;;;9.02;4.15;;;20.10;83.70;;;;;;10542721;28;20392;-73
2022/05/16 17:25:47;;;;;;;11.40;4.22;;;20.00;83.90;;;;;;10542770;28;20074;-70
2022/05/16 17:30:50;;;;;;;8.98;3.83;;;19.90;84.20;;;;;;10542491;28;20512;-75
2022/05/16 17:35:51;;;;;;;13.30;4.80;;;19.80;84.40;;;;;;10542158;28;20431;-68
2022/05/16 17:40:52;;;;;;;9.73;3.97;;;19.70;84.60;;;;;;10542362;28;20067;-68
2022/05/16 17:45:53;;;;;;;10.13;3.60;;;19.80;84.50;;;;;;10542280;28;20089;-70
2022/05/16 17:50:54;;;;;;;8.07;4.07;;;19.90;84.30;;;;;;10541650;28;20052;-74
2022/05/16 17:55:55;;;;;;;9.55;4.28;;;19.90;84.20;;;;;;10540231;28;20181;-66
2022/05/16 18:00:55;;;;;;;7.25;3.60;;;19.90;84.00;;;;;;10541408;28;20032;-59
2022/05/16 18:05:56;;;;;;;5.20;3.47;;;20.00;84.00;;;;;;10541052;28;20136;-69
2022/05/16 18:16:18;;;;;;;7.32;3.15;;;20.00;83.80;;;;;;10540774;28;20040;-73
2022/05/16 18:21:20;;;;;;;6.07;3.50;;;20.00;83.70;;;;;;10540601;28;20091;-71
2022/05/16 18:26:20;;;;;;;7.45;3.33;;;20.00;83.60;;;;;;10540164;28;20119;-67
2022/05/16 18:31:21;;;;;;;9.55;3.47;;;20.00;83.70;;;;;;10539922;28;20135;-70
2022/05/16 18:36:25;;;;;;;7.20;3.35;;;20.00;84.20;;;;;;10539947;28;20067;-69
2022/05/16 18:50:43;;;;;;;6.55;3.00;;;20.00;83.60;;;;;;10539489;28;20028;-69
2022/05/16 18:52:13;;;;;;;7.28;3.40;;;19.90;83.50;;;;;;10539087;28;20048;-68
2022/05/16 18:57:14;;;;;;;7.55;2.92;;;19.90;83.60;;;;;;10538838;28;20416;-68
2022/05/16 19:02:14;;;;;;;6.22;3.10;;;19.90;83.70;;;;;;10538616;28;20058;-69
2022/05/16 19:07:15;;;;;;;6.47;3.05;;;19.90;83.80;;;;;;10538301;28;20024;-70
2022/05/16 19:12:16;;;;;;;4.57;2.92;;;19.80;83.70;;;;;;10538341;28;20507;-68
2022/05/16 19:17:16;;;;;;;4.80;2.80;;;19.90;83.70;;;;;;10537912;28;20101;-68
2022/05/16 19:22:17;;;;;;;5.30;3.00;;;19.90;83.70;;;;;;10537803;28;20036;-66
2022/05/16 19:27:19;;;;;;;4.65;3.03;;;19.80;83.70;;;;;;10537424;28;20048;-68
2022/05/16 19:32:21;;;;;;;4.65;2.78;;;19.80;83.60;;;;;;10537550;28;20160;-67
2022/05/16 19:37:23;;;;;;;5.47;2.75;;;19.80;83.60;;;;;;10537218;28;20457;-64
2022/05/16 19:42:24;;;;;;;5.68;3.05;;;19.80;83.60;;;;;;10536979;28;20073;-67
2022/05/16 19:47:26;;;;;;;6.55;2.80;;;19.80;83.60;;;;;;10536972;28;20093;-66
2022/05/16 19:52:27;;;;;;;5.55;2.78;;;19.80;83.60;;;;;;10536568;28;20040;-64
2022/05/16 19:57:28;;;;;;;5.88;2.58;;;19.80;83.60;;;;;;10536504;28;20039;-66
2022/05/16 20:02:30;;;;;;;6.07;3.03;;;19.70;83.60;;;;;;10536411;28;20047;-62
2022/05/16 20:07:30;;;;;;;6.45;2.70;;;19.70;83.60;;;;;;10536187;28;20448;-66
2022/05/16 20:12:31;;;;;;;7.15;3.10;;;19.70;83.60;;;;;;10536163;28;20076;-69
2022/05/16 20:17:32;;;;;;;5.50;3.00;;;19.70;83.70;;;;;;10535837;28;20046;-60
2022/05/16 20:27:53;;;;;;;6.75;2.50;;;19.60;83.70;;;;;;10535841;28;20028;-60
2022/05/16 20:32:55;;;;;;;7.38;2.67;;;19.60;83.70;;;;;;10535474;28;20051;-66
2022/05/16 20:37:56;;;;;;;5.25;2.95;;;19.60;83.70;;;;;;10535575;28;20469;-66
2022/05/16 20:43:00;;;;;;;4.10;2.58;;;19.60;83.70;;;;;;10535381;28;20115;-66
2022/05/16 20:48:01;;;;;;;4.78;2.63;;;19.60;83.80;;;;;;10535782;28;20059;-67
2022/05/16 20:53:02;;;;;;;3.75;2.40;;;19.60;83.80;;;;;;10535408;28;20044;-65
2022/05/16 20:58:04;;;;;;;5.55;2.72;;;19.50;83.80;;;;;;10534983;28;20108;-62
2022/05/16 21:03:05;;;;;;;7.20;2.65;;;19.50;83.70;;;;;;10535129;28;20028;-65
2022/05/16 21:08:06;;;;;;;4.72;2.60;;;19.50;83.70;;;;;;10534977;28;20119;-64
2022/05/16 21:13:11;;;;;;;6.72;3.17;;;19.50;83.80;;;;;;10534945;28;20131;-66
2022/05/16 21:18:13;;;;;;;7.20;2.70;;;19.50;83.90;;;;;;10534669;28;20394;-66
2022/05/16 21:23:16;;;;;;;4.32;2.47;;;19.50;83.90;;;;;;10534583;28;20093;-57
2022/05/16 21:28:16;;;;;;;3.90;2.22;;;19.40;83.90;;;;;;10534725;28;20048;-65
2022/05/16 21:33:17;;;;;;;6.85;2.22;;;19.50;83.90;;;;;;10540396;28;20412;-59
2022/05/16 21:38:18;;;;;;;4.45;2.55;;;19.50;84.00;;;;;;10542714;28;20072;-60
2022/05/16 21:45:19;;;;;;;4.95;2.50;;;19.50;84.10;;;;;;10541796;28;20097;-67
2022/05/16 21:48:39;;;;;;;4.68;2.40;;;19.40;84.00;;;;;;10541550;28;20086;-64
2022/05/16 21:53:40;;;;;;;5.30;2.60;;;19.40;84.10;;;;;;10541392;28;20089;-67
2022/05/16 21:58:41;;;;;;;5.88;2.40;;;19.40;84.00;;;;;;10541076;28;20443;-66
2022/05/16 22:03:41;;;;;;;6.45;2.85;;;19.40;84.10;;;;;;10541361;28;20122;-62
2022/05/16 22:08:42;;;;;;;6.75;2.40;;;19.40;84.10;;;;;;10541036;28;20032;-66
2022/05/16 22:13:43;;;;;;;3.80;2.47;;;19.40;84.20;;;;;;10540460;28;20131;-66
2022/05/16 22:18:58;;;;;;;4.28;2.88;;;19.40;84.20;;;;;;10540438;28;20032;-64
2022/05/16 22:23:59;;;;;;;3.88;2.40;;;19.40;84.30;;;;;;10540585;28;20085;-68
2022/05/16 22:29:02;;;;;;;6.35;2.58;;;19.30;84.30;;;;;;10539904;28;20400;-64
2022/05/16 22:34:03;;;;;;;6.93;2.50;;;19.30;84.40;;;;;;10540022;28;20043;-68
2022/05/16 22:39:04;;;;;;;5.18;2.50;;;19.30;84.50;;;;;;10539603;28;20036;-67
2022/05/16 22:44:05;;;;;;;3.55;2.03;;;19.30;84.50;;;;;;10539054;28;20617;-66
2022/05/16 22:49:07;;;;;;;6.45;2.35;;;19.30;84.70;;;;;;10539407;28;20037;-65
2022/05/16 22:54:08;;;;;;;5.20;2.42;;;19.30;84.60;;;;;;10539350;28;20036;-65
2022/05/16 22:59:09;;;;;;;4.00;2.28;;;19.30;84.70;;;;;;10538740;28;20052;-67
2022/05/16 23:04:09;;;;;;;3.33;2.30;;;19.20;84.70;;;;;;10538964;28;20063;-66
2022/05/16 23:09:10;;;;;;;5.90;2.75;;;19.30;84.80;;;;;;10538660;28;20063;-66
2022/05/16 23:14:11;;;;;;;3.55;2.67;;;19.20;84.80;;;;;;10538547;28;20496;-64
2022/05/16 23:19:13;;;;;;;7.05;2.70;;;19.20;84.90;;;;;;10538293;28;20519;-66
2022/05/16 23:24:13;;;;;;;3.85;2.45;;;19.20;85.00;;;;;;10538393;28;20048;-63
2022/05/16 23:29:15;;;;;;;6.20;2.47;;;19.10;85.00;;;;;;10537756;28;20445;-67
2022/05/16 23:34:16;;;;;;;6.07;3.25;;;19.10;85.70;;;;;;10537628;28;20484;-66
2022/05/16 23:39:17;;;;;;;5.78;2.42;;;19.10;85.20;;;;;;10537869;28;20028;-67
2022/05/16 23:44:17;;;;;;;5.55;2.72;;;19.10;85.30;;;;;;10537481;28;20032;-67
2022/05/16 23:49:18;;;;;;;6.95;2.78;;;19.10;85.40;;;;;;10537344;28;20036;-66
2022/05/16 23:54:19;;;;;;;6.38;2.65;;;19.00;85.40;;;;;;10536363;28;20089;-58
2022/05/16 23:59:19;;;;;;;7.47;3.28;;;19.00;85.60;;;;;;10536688;28;20054;-60
